<?xml version="1.0" encoding="UTF-8" standalone="no" ?>
<gpx xmlns="http://www.topografix.com/GPX/1/1" xmlns:xsi="http://www.w3.org/2001/XMLSchema-instance" xsi:schemaLocation="http://www.topografix.com/GPX/1/1 http://www.topografix.com/GPX/1/1/gpx.xsd" version="1.1" creator="VisuGPX - https://www.visugpx.com">
  <metadata>
    <name>Foret de Sénart Marche rapide</name>
    <desc><![CDATA[Itinéraire en forêt de Sénart en \"Marche Rapide\"]]></desc>
  </metadata>
  <trk>
    <name><![CDATA[11 déc. 2014 13:40:44]]></name>
    <cmt><![CDATA[11 déc. 2014 13:40:44]]></cmt>
    <trkseg>
      <trkpt lat="48.6856" lon="2.51296">
        <ele>101</ele>
        <time>2014-12-11T12:40:45Z</time>
      </trkpt>
      <trkpt lat="48.68556" lon="2.51298">
        <ele>97</ele>
        <time>2014-12-11T12:41:09Z</time>
      </trkpt>
      <trkpt lat="48.68554" lon="2.51287">
        <ele>92</ele>
        <time>2014-12-11T12:41:26Z</time>
      </trkpt>
      <trkpt lat="48.68548" lon="2.51286">
        <ele>72</ele>
        <time>2014-12-11T12:46:13Z</time>
      </trkpt>
      <trkpt lat="48.68549" lon="2.51293">
        <ele>70</ele>
        <time>2014-12-11T12:46:55Z</time>
      </trkpt>
      <trkpt lat="48.6855" lon="2.51301">
        <ele>70</ele>
        <time>2014-12-11T12:47:28Z</time>
      </trkpt>
      <trkpt lat="48.68544" lon="2.51316">
        <ele>70</ele>
        <time>2014-12-11T12:47:33Z</time>
      </trkpt>
      <trkpt lat="48.68548" lon="2.51314">
        <ele>70</ele>
        <time>2014-12-11T12:47:40Z</time>
      </trkpt>
      <trkpt lat="48.6855" lon="2.51302">
        <ele>70</ele>
        <time>2014-12-11T12:47:44Z</time>
      </trkpt>
      <trkpt lat="48.68552" lon="2.51299">
        <ele>70</ele>
        <time>2014-12-11T12:47:50Z</time>
      </trkpt>
      <trkpt lat="48.6855" lon="2.51285">
        <ele>70</ele>
        <time>2014-12-11T12:48:17Z</time>
      </trkpt>
      <trkpt lat="48.68552" lon="2.51288">
        <ele>70</ele>
        <time>2014-12-11T12:48:24Z</time>
      </trkpt>
      <trkpt lat="48.6855" lon="2.51294">
        <ele>70</ele>
        <time>2014-12-11T12:48:35Z</time>
      </trkpt>
      <trkpt lat="48.68548" lon="2.5131">
        <ele>70</ele>
        <time>2014-12-11T12:48:55Z</time>
      </trkpt>
      <trkpt lat="48.6853" lon="2.51342">
        <ele>70</ele>
        <time>2014-12-11T12:49:17Z</time>
      </trkpt>
      <trkpt lat="48.68521" lon="2.51348">
        <ele>70</ele>
        <time>2014-12-11T12:49:25Z</time>
      </trkpt>
      <trkpt lat="48.68511" lon="2.51349">
        <ele>70</ele>
        <time>2014-12-11T12:49:33Z</time>
      </trkpt>
      <trkpt lat="48.68497" lon="2.5133">
        <ele>70</ele>
        <time>2014-12-11T12:49:48Z</time>
      </trkpt>
      <trkpt lat="48.68463" lon="2.51276">
        <ele>71</ele>
        <time>2014-12-11T12:50:26Z</time>
      </trkpt>
      <trkpt lat="48.68462" lon="2.51261">
        <ele>71</ele>
        <time>2014-12-11T12:50:33Z</time>
      </trkpt>
      <trkpt lat="48.6842" lon="2.51198">
        <ele>71</ele>
        <time>2014-12-11T12:51:04Z</time>
      </trkpt>
      <trkpt lat="48.68386" lon="2.51144">
        <ele>71</ele>
        <time>2014-12-11T12:51:39Z</time>
      </trkpt>
      <trkpt lat="48.68349" lon="2.51089">
        <ele>71</ele>
        <time>2014-12-11T12:52:12Z</time>
      </trkpt>
      <trkpt lat="48.68318" lon="2.51027">
        <ele>72</ele>
        <time>2014-12-11T12:52:43Z</time>
      </trkpt>
      <trkpt lat="48.68288" lon="2.50973">
        <ele>72</ele>
        <time>2014-12-11T12:53:15Z</time>
      </trkpt>
      <trkpt lat="48.68254" lon="2.50916">
        <ele>72</ele>
        <time>2014-12-11T12:53:47Z</time>
      </trkpt>
      <trkpt lat="48.68217" lon="2.5085">
        <ele>73</ele>
        <time>2014-12-11T12:54:20Z</time>
      </trkpt>
      <trkpt lat="48.68181" lon="2.50787">
        <ele>73</ele>
        <time>2014-12-11T12:54:52Z</time>
      </trkpt>
      <trkpt lat="48.68158" lon="2.50735">
        <ele>74</ele>
        <time>2014-12-11T12:55:24Z</time>
      </trkpt>
      <trkpt lat="48.68117" lon="2.50674">
        <ele>74</ele>
        <time>2014-12-11T12:55:58Z</time>
      </trkpt>
      <trkpt lat="48.68082" lon="2.50607">
        <ele>74</ele>
        <time>2014-12-11T12:56:34Z</time>
      </trkpt>
      <trkpt lat="48.68075" lon="2.50596">
        <ele>74</ele>
        <time>2014-12-11T12:56:39Z</time>
      </trkpt>
      <trkpt lat="48.68069" lon="2.50585">
        <ele>74</ele>
        <time>2014-12-11T12:56:45Z</time>
      </trkpt>
      <trkpt lat="48.68038" lon="2.50526">
        <ele>74</ele>
        <time>2014-12-11T12:57:17Z</time>
      </trkpt>
      <trkpt lat="48.68011" lon="2.50471">
        <ele>74</ele>
        <time>2014-12-11T12:57:49Z</time>
      </trkpt>
      <trkpt lat="48.67971" lon="2.50407">
        <ele>74</ele>
        <time>2014-12-11T12:58:24Z</time>
      </trkpt>
      <trkpt lat="48.67954" lon="2.50373">
        <ele>73</ele>
        <time>2014-12-11T12:58:41Z</time>
      </trkpt>
      <trkpt lat="48.67946" lon="2.50366">
        <ele>74</ele>
        <time>2014-12-11T12:58:46Z</time>
      </trkpt>
      <trkpt lat="48.67937" lon="2.5037">
        <ele>74</ele>
        <time>2014-12-11T12:58:53Z</time>
      </trkpt>
      <trkpt lat="48.67903" lon="2.50424">
        <ele>74</ele>
        <time>2014-12-11T12:59:26Z</time>
      </trkpt>
      <trkpt lat="48.67866" lon="2.5048">
        <ele>74</ele>
        <time>2014-12-11T12:59:57Z</time>
      </trkpt>
      <trkpt lat="48.67828" lon="2.50526">
        <ele>74</ele>
        <time>2014-12-11T13:00:30Z</time>
      </trkpt>
      <trkpt lat="48.67791" lon="2.50573">
        <ele>74</ele>
        <time>2014-12-11T13:01:00Z</time>
      </trkpt>
      <trkpt lat="48.67753" lon="2.50626">
        <ele>75</ele>
        <time>2014-12-11T13:01:31Z</time>
      </trkpt>
      <trkpt lat="48.67717" lon="2.50671">
        <ele>74</ele>
        <time>2014-12-11T13:02:03Z</time>
      </trkpt>
      <trkpt lat="48.67673" lon="2.5073">
        <ele>75</ele>
        <time>2014-12-11T13:02:38Z</time>
      </trkpt>
      <trkpt lat="48.67636" lon="2.50782">
        <ele>75</ele>
        <time>2014-12-11T13:03:08Z</time>
      </trkpt>
      <trkpt lat="48.67593" lon="2.50843">
        <ele>75</ele>
        <time>2014-12-11T13:03:42Z</time>
      </trkpt>
      <trkpt lat="48.67551" lon="2.50902">
        <ele>75</ele>
        <time>2014-12-11T13:04:17Z</time>
      </trkpt>
      <trkpt lat="48.67512" lon="2.50951">
        <ele>75</ele>
        <time>2014-12-11T13:04:48Z</time>
      </trkpt>
      <trkpt lat="48.6747" lon="2.5101">
        <ele>75</ele>
        <time>2014-12-11T13:05:23Z</time>
      </trkpt>
      <trkpt lat="48.67431" lon="2.51063">
        <ele>75</ele>
        <time>2014-12-11T13:05:56Z</time>
      </trkpt>
      <trkpt lat="48.67392" lon="2.51112">
        <ele>75</ele>
        <time>2014-12-11T13:06:27Z</time>
      </trkpt>
      <trkpt lat="48.67365" lon="2.51149">
        <ele>77</ele>
        <time>2014-12-11T13:06:50Z</time>
      </trkpt>
      <trkpt lat="48.67361" lon="2.51155">
        <ele>77</ele>
        <time>2014-12-11T13:06:54Z</time>
      </trkpt>
      <trkpt lat="48.67344" lon="2.51174">
        <ele>77</ele>
        <time>2014-12-11T13:07:08Z</time>
      </trkpt>
      <trkpt lat="48.67334" lon="2.51193">
        <ele>76</ele>
        <time>2014-12-11T13:07:18Z</time>
      </trkpt>
      <trkpt lat="48.67297" lon="2.51245">
        <ele>76</ele>
        <time>2014-12-11T13:07:51Z</time>
      </trkpt>
      <trkpt lat="48.67257" lon="2.51295">
        <ele>77</ele>
        <time>2014-12-11T13:08:23Z</time>
      </trkpt>
      <trkpt lat="48.6722" lon="2.51347">
        <ele>77</ele>
        <time>2014-12-11T13:08:55Z</time>
      </trkpt>
      <trkpt lat="48.67215" lon="2.5135">
        <ele>77</ele>
        <time>2014-12-11T13:08:59Z</time>
      </trkpt>
      <trkpt lat="48.67207" lon="2.51362">
        <ele>77</ele>
        <time>2014-12-11T13:09:06Z</time>
      </trkpt>
      <trkpt lat="48.67199" lon="2.5137">
        <ele>77</ele>
        <time>2014-12-11T13:09:12Z</time>
      </trkpt>
      <trkpt lat="48.67161" lon="2.5143">
        <ele>77</ele>
        <time>2014-12-11T13:09:43Z</time>
      </trkpt>
      <trkpt lat="48.67117" lon="2.51492">
        <ele>76</ele>
        <time>2014-12-11T13:10:19Z</time>
      </trkpt>
      <trkpt lat="48.67108" lon="2.51496">
        <ele>76</ele>
        <time>2014-12-11T13:10:25Z</time>
      </trkpt>
      <trkpt lat="48.67102" lon="2.51507">
        <ele>77</ele>
        <time>2014-12-11T13:10:31Z</time>
      </trkpt>
      <trkpt lat="48.67062" lon="2.51563">
        <ele>76</ele>
        <time>2014-12-11T13:11:06Z</time>
      </trkpt>
      <trkpt lat="48.67022" lon="2.51614">
        <ele>77</ele>
        <time>2014-12-11T13:11:38Z</time>
      </trkpt>
      <trkpt lat="48.66982" lon="2.51671">
        <ele>76</ele>
        <time>2014-12-11T13:12:12Z</time>
      </trkpt>
      <trkpt lat="48.66966" lon="2.5169">
        <ele>77</ele>
        <time>2014-12-11T13:12:26Z</time>
      </trkpt>
      <trkpt lat="48.66922" lon="2.51748">
        <ele>77</ele>
        <time>2014-12-11T13:12:59Z</time>
      </trkpt>
      <trkpt lat="48.66877" lon="2.51809">
        <ele>77</ele>
        <time>2014-12-11T13:13:37Z</time>
      </trkpt>
      <trkpt lat="48.66841" lon="2.51855">
        <ele>77</ele>
        <time>2014-12-11T13:14:07Z</time>
      </trkpt>
      <trkpt lat="48.66801" lon="2.5191">
        <ele>78</ele>
        <time>2014-12-11T13:14:42Z</time>
      </trkpt>
      <trkpt lat="48.66758" lon="2.51963">
        <ele>78</ele>
        <time>2014-12-11T13:15:17Z</time>
      </trkpt>
      <trkpt lat="48.66716" lon="2.52024">
        <ele>79</ele>
        <time>2014-12-11T13:15:53Z</time>
      </trkpt>
      <trkpt lat="48.66675" lon="2.52076">
        <ele>78</ele>
        <time>2014-12-11T13:16:29Z</time>
      </trkpt>
      <trkpt lat="48.66631" lon="2.52134">
        <ele>78</ele>
        <time>2014-12-11T13:17:02Z</time>
      </trkpt>
      <trkpt lat="48.66594" lon="2.52182">
        <ele>78</ele>
        <time>2014-12-11T13:17:33Z</time>
      </trkpt>
      <trkpt lat="48.66588" lon="2.52193">
        <ele>78</ele>
        <time>2014-12-11T13:17:40Z</time>
      </trkpt>
      <trkpt lat="48.66582" lon="2.52198">
        <ele>78</ele>
        <time>2014-12-11T13:17:44Z</time>
      </trkpt>
      <trkpt lat="48.66537" lon="2.52258">
        <ele>78</ele>
        <time>2014-12-11T13:18:19Z</time>
      </trkpt>
      <trkpt lat="48.66503" lon="2.5231">
        <ele>78</ele>
        <time>2014-12-11T13:18:52Z</time>
      </trkpt>
      <trkpt lat="48.66455" lon="2.52363">
        <ele>78</ele>
        <time>2014-12-11T13:19:25Z</time>
      </trkpt>
      <trkpt lat="48.66421" lon="2.52416">
        <ele>78</ele>
        <time>2014-12-11T13:19:56Z</time>
      </trkpt>
      <trkpt lat="48.66413" lon="2.52425">
        <ele>78</ele>
        <time>2014-12-11T13:20:03Z</time>
      </trkpt>
      <trkpt lat="48.66407" lon="2.52428">
        <ele>78</ele>
        <time>2014-12-11T13:20:19Z</time>
      </trkpt>
      <trkpt lat="48.66398" lon="2.52438">
        <ele>78</ele>
        <time>2014-12-11T13:21:14Z</time>
      </trkpt>
      <trkpt lat="48.66363" lon="2.52486">
        <ele>78</ele>
        <time>2014-12-11T13:21:45Z</time>
      </trkpt>
      <trkpt lat="48.6636" lon="2.52492">
        <ele>78</ele>
        <time>2014-12-11T13:21:47Z</time>
      </trkpt>
      <trkpt lat="48.66314" lon="2.52548">
        <ele>79</ele>
        <time>2014-12-11T13:22:23Z</time>
      </trkpt>
      <trkpt lat="48.66277" lon="2.52601">
        <ele>79</ele>
        <time>2014-12-11T13:22:53Z</time>
      </trkpt>
      <trkpt lat="48.66238" lon="2.52651">
        <ele>80</ele>
        <time>2014-12-11T13:23:25Z</time>
      </trkpt>
      <trkpt lat="48.662" lon="2.52704">
        <ele>80</ele>
        <time>2014-12-11T13:23:57Z</time>
      </trkpt>
      <trkpt lat="48.66159" lon="2.52754">
        <ele>79</ele>
        <time>2014-12-11T13:24:28Z</time>
      </trkpt>
      <trkpt lat="48.66117" lon="2.5281">
        <ele>79</ele>
        <time>2014-12-11T13:25:01Z</time>
      </trkpt>
      <trkpt lat="48.6608" lon="2.52863">
        <ele>79</ele>
        <time>2014-12-11T13:25:32Z</time>
      </trkpt>
      <trkpt lat="48.66051" lon="2.52902">
        <ele>79</ele>
        <time>2014-12-11T13:25:58Z</time>
      </trkpt>
      <trkpt lat="48.66043" lon="2.52913">
        <ele>80</ele>
        <time>2014-12-11T13:26:04Z</time>
      </trkpt>
      <trkpt lat="48.66037" lon="2.52923">
        <ele>80</ele>
        <time>2014-12-11T13:26:10Z</time>
      </trkpt>
      <trkpt lat="48.6599" lon="2.52985">
        <ele>79</ele>
        <time>2014-12-11T13:26:46Z</time>
      </trkpt>
      <trkpt lat="48.65949" lon="2.53045">
        <ele>79</ele>
        <time>2014-12-11T13:27:19Z</time>
      </trkpt>
      <trkpt lat="48.65907" lon="2.53108">
        <ele>79</ele>
        <time>2014-12-11T13:27:54Z</time>
      </trkpt>
      <trkpt lat="48.65871" lon="2.53145">
        <ele>79</ele>
        <time>2014-12-11T13:28:19Z</time>
      </trkpt>
      <trkpt lat="48.65862" lon="2.53166">
        <ele>79</ele>
        <time>2014-12-11T13:28:29Z</time>
      </trkpt>
      <trkpt lat="48.65854" lon="2.5317">
        <ele>79</ele>
        <time>2014-12-11T13:28:34Z</time>
      </trkpt>
      <trkpt lat="48.65822" lon="2.53211">
        <ele>79</ele>
        <time>2014-12-11T13:28:57Z</time>
      </trkpt>
      <trkpt lat="48.65821" lon="2.53225">
        <ele>79</ele>
        <time>2014-12-11T13:29:02Z</time>
      </trkpt>
      <trkpt lat="48.65816" lon="2.53237">
        <ele>79</ele>
        <time>2014-12-11T13:29:08Z</time>
      </trkpt>
      <trkpt lat="48.65799" lon="2.53248">
        <ele>78</ele>
        <time>2014-12-11T13:29:17Z</time>
      </trkpt>
      <trkpt lat="48.65793" lon="2.53248">
        <ele>78</ele>
        <time>2014-12-11T13:29:19Z</time>
      </trkpt>
      <trkpt lat="48.65785" lon="2.53259">
        <ele>78</ele>
        <time>2014-12-11T13:29:26Z</time>
      </trkpt>
      <trkpt lat="48.65746" lon="2.53318">
        <ele>78</ele>
        <time>2014-12-11T13:30:02Z</time>
      </trkpt>
      <trkpt lat="48.65711" lon="2.5337">
        <ele>79</ele>
        <time>2014-12-11T13:30:33Z</time>
      </trkpt>
      <trkpt lat="48.6567" lon="2.53423">
        <ele>79</ele>
        <time>2014-12-11T13:31:05Z</time>
      </trkpt>
      <trkpt lat="48.65629" lon="2.53478">
        <ele>79</ele>
        <time>2014-12-11T13:31:39Z</time>
      </trkpt>
      <trkpt lat="48.65592" lon="2.53526">
        <ele>79</ele>
        <time>2014-12-11T13:32:11Z</time>
      </trkpt>
      <trkpt lat="48.65546" lon="2.53583">
        <ele>79</ele>
        <time>2014-12-11T13:32:46Z</time>
      </trkpt>
      <trkpt lat="48.6551" lon="2.5363">
        <ele>79</ele>
        <time>2014-12-11T13:33:18Z</time>
      </trkpt>
      <trkpt lat="48.65472" lon="2.53696">
        <ele>79</ele>
        <time>2014-12-11T13:33:50Z</time>
      </trkpt>
      <trkpt lat="48.65434" lon="2.53745">
        <ele>79</ele>
        <time>2014-12-11T13:34:24Z</time>
      </trkpt>
      <trkpt lat="48.65391" lon="2.53803">
        <ele>79</ele>
        <time>2014-12-11T13:34:56Z</time>
      </trkpt>
      <trkpt lat="48.65366" lon="2.5383">
        <ele>78</ele>
        <time>2014-12-11T13:35:16Z</time>
      </trkpt>
      <trkpt lat="48.65363" lon="2.53844">
        <ele>78</ele>
        <time>2014-12-11T13:35:21Z</time>
      </trkpt>
      <trkpt lat="48.65323" lon="2.53887">
        <ele>79</ele>
        <time>2014-12-11T13:35:52Z</time>
      </trkpt>
      <trkpt lat="48.65315" lon="2.53897">
        <ele>79</ele>
        <time>2014-12-11T13:35:58Z</time>
      </trkpt>
      <trkpt lat="48.65305" lon="2.539">
        <ele>78</ele>
        <time>2014-12-11T13:36:05Z</time>
      </trkpt>
      <trkpt lat="48.65253" lon="2.53871">
        <ele>78</ele>
        <time>2014-12-11T13:36:36Z</time>
      </trkpt>
      <trkpt lat="48.65244" lon="2.53866">
        <ele>78</ele>
        <time>2014-12-11T13:36:41Z</time>
      </trkpt>
      <trkpt lat="48.65238" lon="2.53856">
        <ele>78</ele>
        <time>2014-12-11T13:36:46Z</time>
      </trkpt>
      <trkpt lat="48.65191" lon="2.53822">
        <ele>77</ele>
        <time>2014-12-11T13:37:18Z</time>
      </trkpt>
      <trkpt lat="48.65142" lon="2.53787">
        <ele>77</ele>
        <time>2014-12-11T13:37:50Z</time>
      </trkpt>
      <trkpt lat="48.65094" lon="2.5375">
        <ele>76</ele>
        <time>2014-12-11T13:38:23Z</time>
      </trkpt>
      <trkpt lat="48.65049" lon="2.53723">
        <ele>76</ele>
        <time>2014-12-11T13:38:54Z</time>
      </trkpt>
      <trkpt lat="48.64992" lon="2.53677">
        <ele>77</ele>
        <time>2014-12-11T13:39:31Z</time>
      </trkpt>
      <trkpt lat="48.6494" lon="2.53638">
        <ele>77</ele>
        <time>2014-12-11T13:40:08Z</time>
      </trkpt>
      <trkpt lat="48.64893" lon="2.53605">
        <ele>77</ele>
        <time>2014-12-11T13:40:41Z</time>
      </trkpt>
      <trkpt lat="48.64848" lon="2.53573">
        <ele>77</ele>
        <time>2014-12-11T13:41:12Z</time>
      </trkpt>
      <trkpt lat="48.64832" lon="2.53559">
        <ele>77</ele>
        <time>2014-12-11T13:41:23Z</time>
      </trkpt>
      <trkpt lat="48.64826" lon="2.53557">
        <ele>77</ele>
        <time>2014-12-11T13:41:26Z</time>
      </trkpt>
      <trkpt lat="48.64773" lon="2.5352">
        <ele>77</ele>
        <time>2014-12-11T13:42:02Z</time>
      </trkpt>
      <trkpt lat="48.64731" lon="2.53482">
        <ele>77</ele>
        <time>2014-12-11T13:42:32Z</time>
      </trkpt>
      <trkpt lat="48.64677" lon="2.53451">
        <ele>77</ele>
        <time>2014-12-11T13:43:08Z</time>
      </trkpt>
      <trkpt lat="48.64667" lon="2.53455">
        <ele>77</ele>
        <time>2014-12-11T13:43:14Z</time>
      </trkpt>
      <trkpt lat="48.64627" lon="2.5351">
        <ele>77</ele>
        <time>2014-12-11T13:43:47Z</time>
      </trkpt>
      <trkpt lat="48.64578" lon="2.53552">
        <ele>77</ele>
        <time>2014-12-11T13:44:21Z</time>
      </trkpt>
      <trkpt lat="48.64541" lon="2.53618">
        <ele>77</ele>
        <time>2014-12-11T13:44:56Z</time>
      </trkpt>
      <trkpt lat="48.64492" lon="2.53661">
        <ele>77</ele>
        <time>2014-12-11T13:45:29Z</time>
      </trkpt>
      <trkpt lat="48.64452" lon="2.53707">
        <ele>77</ele>
        <time>2014-12-11T13:46:00Z</time>
      </trkpt>
      <trkpt lat="48.64446" lon="2.53718">
        <ele>76</ele>
        <time>2014-12-11T13:46:11Z</time>
      </trkpt>
      <trkpt lat="48.64447" lon="2.53732">
        <ele>76</ele>
        <time>2014-12-11T13:46:21Z</time>
      </trkpt>
      <trkpt lat="48.64448" lon="2.53744">
        <ele>77</ele>
        <time>2014-12-11T13:47:25Z</time>
      </trkpt>
      <trkpt lat="48.64447" lon="2.53753">
        <ele>77</ele>
        <time>2014-12-11T13:49:51Z</time>
      </trkpt>
      <trkpt lat="48.64447" lon="2.5376">
        <ele>78</ele>
        <time>2014-12-11T13:49:56Z</time>
      </trkpt>
      <trkpt lat="48.64449" lon="2.53792">
        <ele>78</ele>
        <time>2014-12-11T13:50:10Z</time>
      </trkpt>
      <trkpt lat="48.64449" lon="2.53807">
        <ele>78</ele>
        <time>2014-12-11T13:50:18Z</time>
      </trkpt>
      <trkpt lat="48.64454" lon="2.5382">
        <ele>77</ele>
        <time>2014-12-11T13:50:24Z</time>
      </trkpt>
      <trkpt lat="48.64478" lon="2.53891">
        <ele>78</ele>
        <time>2014-12-11T13:50:56Z</time>
      </trkpt>
      <trkpt lat="48.64488" lon="2.53894">
        <ele>78</ele>
        <time>2014-12-11T13:51:01Z</time>
      </trkpt>
      <trkpt lat="48.64551" lon="2.53905">
        <ele>78</ele>
        <time>2014-12-11T13:51:35Z</time>
      </trkpt>
      <trkpt lat="48.64574" lon="2.53933">
        <ele>78</ele>
        <time>2014-12-11T13:51:56Z</time>
      </trkpt>
      <trkpt lat="48.64629" lon="2.53957">
        <ele>78</ele>
        <time>2014-12-11T13:52:28Z</time>
      </trkpt>
      <trkpt lat="48.64677" lon="2.53982">
        <ele>79</ele>
        <time>2014-12-11T13:53:01Z</time>
      </trkpt>
      <trkpt lat="48.64691" lon="2.53989">
        <ele>79</ele>
        <time>2014-12-11T13:53:12Z</time>
      </trkpt>
      <trkpt lat="48.64698" lon="2.53999">
        <ele>79</ele>
        <time>2014-12-11T13:53:17Z</time>
      </trkpt>
      <trkpt lat="48.64703" lon="2.54001">
        <ele>79</ele>
        <time>2014-12-11T13:53:22Z</time>
      </trkpt>
      <trkpt lat="48.64709" lon="2.53957">
        <ele>79</ele>
        <time>2014-12-11T13:53:42Z</time>
      </trkpt>
      <trkpt lat="48.64714" lon="2.53957">
        <ele>79</ele>
        <time>2014-12-11T13:53:47Z</time>
      </trkpt>
      <trkpt lat="48.64725" lon="2.53956">
        <ele>79</ele>
        <time>2014-12-11T13:53:55Z</time>
      </trkpt>
      <trkpt lat="48.64741" lon="2.53969">
        <ele>79</ele>
        <time>2014-12-11T13:54:06Z</time>
      </trkpt>
      <trkpt lat="48.64766" lon="2.53979">
        <ele>79</ele>
        <time>2014-12-11T13:54:22Z</time>
      </trkpt>
      <trkpt lat="48.64768" lon="2.53989">
        <ele>79</ele>
        <time>2014-12-11T13:54:27Z</time>
      </trkpt>
      <trkpt lat="48.64773" lon="2.53992">
        <ele>79</ele>
        <time>2014-12-11T13:54:32Z</time>
      </trkpt>
      <trkpt lat="48.648" lon="2.54013">
        <ele>79</ele>
        <time>2014-12-11T13:54:49Z</time>
      </trkpt>
      <trkpt lat="48.64809" lon="2.54008">
        <ele>79</ele>
        <time>2014-12-11T13:54:54Z</time>
      </trkpt>
      <trkpt lat="48.64814" lon="2.5401">
        <ele>79</ele>
        <time>2014-12-11T13:54:58Z</time>
      </trkpt>
      <trkpt lat="48.64856" lon="2.54041">
        <ele>79</ele>
        <time>2014-12-11T13:55:31Z</time>
      </trkpt>
      <trkpt lat="48.64895" lon="2.54065">
        <ele>79</ele>
        <time>2014-12-11T13:56:02Z</time>
      </trkpt>
      <trkpt lat="48.64941" lon="2.54096">
        <ele>78</ele>
        <time>2014-12-11T13:56:33Z</time>
      </trkpt>
      <trkpt lat="48.64984" lon="2.54112">
        <ele>78</ele>
        <time>2014-12-11T13:57:03Z</time>
      </trkpt>
      <trkpt lat="48.65" lon="2.54114">
        <ele>78</ele>
        <time>2014-12-11T13:57:11Z</time>
      </trkpt>
      <trkpt lat="48.65013" lon="2.54133">
        <ele>78</ele>
        <time>2014-12-11T13:57:21Z</time>
      </trkpt>
      <trkpt lat="48.65016" lon="2.54146">
        <ele>78</ele>
        <time>2014-12-11T13:57:27Z</time>
      </trkpt>
      <trkpt lat="48.65009" lon="2.54204">
        <ele>78</ele>
        <time>2014-12-11T13:58:03Z</time>
      </trkpt>
      <trkpt lat="48.65003" lon="2.54218">
        <ele>78</ele>
        <time>2014-12-11T13:58:10Z</time>
      </trkpt>
      <trkpt lat="48.65002" lon="2.54233">
        <ele>78</ele>
        <time>2014-12-11T13:58:18Z</time>
      </trkpt>
      <trkpt lat="48.65005" lon="2.54242">
        <ele>78</ele>
        <time>2014-12-11T13:58:23Z</time>
      </trkpt>
      <trkpt lat="48.65021" lon="2.5426">
        <ele>78</ele>
        <time>2014-12-11T13:58:41Z</time>
      </trkpt>
      <trkpt lat="48.65059" lon="2.54291">
        <ele>78</ele>
        <time>2014-12-11T13:59:11Z</time>
      </trkpt>
      <trkpt lat="48.65062" lon="2.54296">
        <ele>78</ele>
        <time>2014-12-11T13:59:14Z</time>
      </trkpt>
      <trkpt lat="48.65097" lon="2.54336">
        <ele>78</ele>
        <time>2014-12-11T13:59:44Z</time>
      </trkpt>
      <trkpt lat="48.65123" lon="2.5436">
        <ele>78</ele>
        <time>2014-12-11T14:00:07Z</time>
      </trkpt>
      <trkpt lat="48.65127" lon="2.54354">
        <ele>78</ele>
        <time>2014-12-11T14:00:13Z</time>
      </trkpt>
      <trkpt lat="48.65136" lon="2.54327">
        <ele>78</ele>
        <time>2014-12-11T14:00:25Z</time>
      </trkpt>
      <trkpt lat="48.65137" lon="2.54283">
        <ele>78</ele>
        <time>2014-12-11T14:00:47Z</time>
      </trkpt>
      <trkpt lat="48.65154" lon="2.54248">
        <ele>78</ele>
        <time>2014-12-11T14:01:07Z</time>
      </trkpt>
      <trkpt lat="48.65154" lon="2.54234">
        <ele>78</ele>
        <time>2014-12-11T14:01:16Z</time>
      </trkpt>
      <trkpt lat="48.65148" lon="2.54222">
        <ele>78</ele>
        <time>2014-12-11T14:01:23Z</time>
      </trkpt>
      <trkpt lat="48.65131" lon="2.54188">
        <ele>77</ele>
        <time>2014-12-11T14:01:47Z</time>
      </trkpt>
      <trkpt lat="48.65129" lon="2.54173">
        <ele>77</ele>
        <time>2014-12-11T14:01:54Z</time>
      </trkpt>
      <trkpt lat="48.65142" lon="2.54134">
        <ele>78</ele>
        <time>2014-12-11T14:02:12Z</time>
      </trkpt>
      <trkpt lat="48.65183" lon="2.54072">
        <ele>78</ele>
        <time>2014-12-11T14:02:48Z</time>
      </trkpt>
      <trkpt lat="48.652" lon="2.54057">
        <ele>78</ele>
        <time>2014-12-11T14:03:02Z</time>
      </trkpt>
      <trkpt lat="48.65204" lon="2.54045">
        <ele>78</ele>
        <time>2014-12-11T14:03:08Z</time>
      </trkpt>
      <trkpt lat="48.65237" lon="2.5399">
        <ele>78</ele>
        <time>2014-12-11T14:03:40Z</time>
      </trkpt>
      <trkpt lat="48.65276" lon="2.53949">
        <ele>78</ele>
        <time>2014-12-11T14:04:11Z</time>
      </trkpt>
      <trkpt lat="48.65317" lon="2.53897">
        <ele>78</ele>
        <time>2014-12-11T14:04:43Z</time>
      </trkpt>
      <trkpt lat="48.65345" lon="2.53846">
        <ele>79</ele>
        <time>2014-12-11T14:05:11Z</time>
      </trkpt>
      <trkpt lat="48.6535" lon="2.53846">
        <ele>79</ele>
        <time>2014-12-11T14:05:15Z</time>
      </trkpt>
      <trkpt lat="48.65365" lon="2.53832">
        <ele>79</ele>
        <time>2014-12-11T14:05:27Z</time>
      </trkpt>
      <trkpt lat="48.65385" lon="2.53803">
        <ele>79</ele>
        <time>2014-12-11T14:05:42Z</time>
      </trkpt>
      <trkpt lat="48.65394" lon="2.53802">
        <ele>79</ele>
        <time>2014-12-11T14:05:46Z</time>
      </trkpt>
      <trkpt lat="48.654" lon="2.53805">
        <ele>79</ele>
        <time>2014-12-11T14:05:48Z</time>
      </trkpt>
      <trkpt lat="48.65405" lon="2.53793">
        <ele>80</ele>
        <time>2014-12-11T14:05:55Z</time>
      </trkpt>
      <trkpt lat="48.6541" lon="2.53781">
        <ele>80</ele>
        <time>2014-12-11T14:05:59Z</time>
      </trkpt>
      <trkpt lat="48.65419" lon="2.53777">
        <ele>80</ele>
        <time>2014-12-11T14:06:05Z</time>
      </trkpt>
      <trkpt lat="48.65422" lon="2.5377">
        <ele>80</ele>
        <time>2014-12-11T14:06:08Z</time>
      </trkpt>
      <trkpt lat="48.65457" lon="2.53713">
        <ele>80</ele>
        <time>2014-12-11T14:06:41Z</time>
      </trkpt>
      <trkpt lat="48.65463" lon="2.5371">
        <ele>80</ele>
        <time>2014-12-11T14:06:45Z</time>
      </trkpt>
      <trkpt lat="48.65502" lon="2.5366">
        <ele>81</ele>
        <time>2014-12-11T14:07:16Z</time>
      </trkpt>
      <trkpt lat="48.65529" lon="2.53612">
        <ele>81</ele>
        <time>2014-12-11T14:07:39Z</time>
      </trkpt>
      <trkpt lat="48.6553" lon="2.536">
        <ele>81</ele>
        <time>2014-12-11T14:07:46Z</time>
      </trkpt>
      <trkpt lat="48.65546" lon="2.53584">
        <ele>81</ele>
        <time>2014-12-11T14:07:55Z</time>
      </trkpt>
      <trkpt lat="48.65562" lon="2.53574">
        <ele>81</ele>
        <time>2014-12-11T14:08:03Z</time>
      </trkpt>
      <trkpt lat="48.65564" lon="2.53569">
        <ele>81</ele>
        <time>2014-12-11T14:08:05Z</time>
      </trkpt>
      <trkpt lat="48.65587" lon="2.53531">
        <ele>81</ele>
        <time>2014-12-11T14:08:23Z</time>
      </trkpt>
      <trkpt lat="48.65596" lon="2.53523">
        <ele>81</ele>
        <time>2014-12-11T14:08:34Z</time>
      </trkpt>
      <trkpt lat="48.65599" lon="2.53517">
        <ele>81</ele>
        <time>2014-12-11T14:08:39Z</time>
      </trkpt>
      <trkpt lat="48.65636" lon="2.53481">
        <ele>81</ele>
        <time>2014-12-11T14:09:06Z</time>
      </trkpt>
      <trkpt lat="48.65637" lon="2.53471">
        <ele>81</ele>
        <time>2014-12-11T14:09:10Z</time>
      </trkpt>
      <trkpt lat="48.65659" lon="2.53446">
        <ele>82</ele>
        <time>2014-12-11T14:09:25Z</time>
      </trkpt>
      <trkpt lat="48.65669" lon="2.53436">
        <ele>81</ele>
        <time>2014-12-11T14:09:32Z</time>
      </trkpt>
      <trkpt lat="48.65711" lon="2.53371">
        <ele>81</ele>
        <time>2014-12-11T14:10:05Z</time>
      </trkpt>
      <trkpt lat="48.65714" lon="2.53368">
        <ele>81</ele>
        <time>2014-12-11T14:10:07Z</time>
      </trkpt>
      <trkpt lat="48.65725" lon="2.53366">
        <ele>81</ele>
        <time>2014-12-11T14:10:13Z</time>
      </trkpt>
      <trkpt lat="48.65739" lon="2.53354">
        <ele>82</ele>
        <time>2014-12-11T14:10:26Z</time>
      </trkpt>
      <trkpt lat="48.65744" lon="2.53345">
        <ele>82</ele>
        <time>2014-12-11T14:10:30Z</time>
      </trkpt>
      <trkpt lat="48.65748" lon="2.53334">
        <ele>81</ele>
        <time>2014-12-11T14:10:34Z</time>
      </trkpt>
      <trkpt lat="48.65748" lon="2.53324">
        <ele>81</ele>
        <time>2014-12-11T14:10:37Z</time>
      </trkpt>
      <trkpt lat="48.65756" lon="2.53306">
        <ele>81</ele>
        <time>2014-12-11T14:10:44Z</time>
      </trkpt>
      <trkpt lat="48.65783" lon="2.53278">
        <ele>81</ele>
        <time>2014-12-11T14:11:06Z</time>
      </trkpt>
      <trkpt lat="48.65804" lon="2.53266">
        <ele>82</ele>
        <time>2014-12-11T14:11:18Z</time>
      </trkpt>
      <trkpt lat="48.65808" lon="2.53254">
        <ele>82</ele>
        <time>2014-12-11T14:11:23Z</time>
      </trkpt>
      <trkpt lat="48.65827" lon="2.53235">
        <ele>82</ele>
        <time>2014-12-11T14:11:35Z</time>
      </trkpt>
      <trkpt lat="48.6586" lon="2.53179">
        <ele>82</ele>
        <time>2014-12-11T14:12:01Z</time>
      </trkpt>
      <trkpt lat="48.65872" lon="2.53176">
        <ele>82</ele>
        <time>2014-12-11T14:12:09Z</time>
      </trkpt>
      <trkpt lat="48.65884" lon="2.53126">
        <ele>82</ele>
        <time>2014-12-11T14:12:24Z</time>
      </trkpt>
      <trkpt lat="48.65902" lon="2.5311">
        <ele>83</ele>
        <time>2014-12-11T14:12:37Z</time>
      </trkpt>
      <trkpt lat="48.65904" lon="2.53104">
        <ele>83</ele>
        <time>2014-12-11T14:12:40Z</time>
      </trkpt>
      <trkpt lat="48.65918" lon="2.53096">
        <ele>83</ele>
        <time>2014-12-11T14:12:50Z</time>
      </trkpt>
      <trkpt lat="48.65923" lon="2.53082">
        <ele>83</ele>
        <time>2014-12-11T14:12:54Z</time>
      </trkpt>
      <trkpt lat="48.65927" lon="2.53077">
        <ele>83</ele>
        <time>2014-12-11T14:12:58Z</time>
      </trkpt>
      <trkpt lat="48.6596" lon="2.53014">
        <ele>83</ele>
        <time>2014-12-11T14:13:28Z</time>
      </trkpt>
      <trkpt lat="48.66004" lon="2.52971">
        <ele>83</ele>
        <time>2014-12-11T14:13:59Z</time>
      </trkpt>
      <trkpt lat="48.66019" lon="2.52955">
        <ele>83</ele>
        <time>2014-12-11T14:14:10Z</time>
      </trkpt>
      <trkpt lat="48.66023" lon="2.52942">
        <ele>83</ele>
        <time>2014-12-11T14:14:17Z</time>
      </trkpt>
      <trkpt lat="48.66024" lon="2.52929">
        <ele>83</ele>
        <time>2014-12-11T14:14:24Z</time>
      </trkpt>
      <trkpt lat="48.66028" lon="2.52924">
        <ele>83</ele>
        <time>2014-12-11T14:14:27Z</time>
      </trkpt>
      <trkpt lat="48.66082" lon="2.5287">
        <ele>83</ele>
        <time>2014-12-11T14:15:02Z</time>
      </trkpt>
      <trkpt lat="48.66099" lon="2.52836">
        <ele>83</ele>
        <time>2014-12-11T14:15:20Z</time>
      </trkpt>
      <trkpt lat="48.66116" lon="2.52822">
        <ele>83</ele>
        <time>2014-12-11T14:15:30Z</time>
      </trkpt>
      <trkpt lat="48.66117" lon="2.52817">
        <ele>83</ele>
        <time>2014-12-11T14:15:32Z</time>
      </trkpt>
      <trkpt lat="48.66156" lon="2.52768">
        <ele>83</ele>
        <time>2014-12-11T14:16:02Z</time>
      </trkpt>
      <trkpt lat="48.66173" lon="2.52761">
        <ele>83</ele>
        <time>2014-12-11T14:16:13Z</time>
      </trkpt>
      <trkpt lat="48.66188" lon="2.52742">
        <ele>83</ele>
        <time>2014-12-11T14:16:28Z</time>
      </trkpt>
      <trkpt lat="48.66217" lon="2.5269">
        <ele>83</ele>
        <time>2014-12-11T14:16:58Z</time>
      </trkpt>
      <trkpt lat="48.66224" lon="2.52687">
        <ele>83</ele>
        <time>2014-12-11T14:17:02Z</time>
      </trkpt>
      <trkpt lat="48.66227" lon="2.52679">
        <ele>83</ele>
        <time>2014-12-11T14:17:06Z</time>
      </trkpt>
      <trkpt lat="48.66235" lon="2.52655">
        <ele>83</ele>
        <time>2014-12-11T14:17:16Z</time>
      </trkpt>
      <trkpt lat="48.66245" lon="2.52647">
        <ele>83</ele>
        <time>2014-12-11T14:17:23Z</time>
      </trkpt>
      <trkpt lat="48.66261" lon="2.52641">
        <ele>83</ele>
        <time>2014-12-11T14:17:31Z</time>
      </trkpt>
      <trkpt lat="48.66265" lon="2.52634">
        <ele>83</ele>
        <time>2014-12-11T14:17:33Z</time>
      </trkpt>
      <trkpt lat="48.66265" lon="2.5262">
        <ele>83</ele>
        <time>2014-12-11T14:17:37Z</time>
      </trkpt>
      <trkpt lat="48.66271" lon="2.52611">
        <ele>83</ele>
        <time>2014-12-11T14:17:42Z</time>
      </trkpt>
      <trkpt lat="48.66281" lon="2.52597">
        <ele>83</ele>
        <time>2014-12-11T14:17:51Z</time>
      </trkpt>
      <trkpt lat="48.66321" lon="2.52548">
        <ele>83</ele>
        <time>2014-12-11T14:18:22Z</time>
      </trkpt>
      <trkpt lat="48.66322" lon="2.5254">
        <ele>83</ele>
        <time>2014-12-11T14:18:25Z</time>
      </trkpt>
      <trkpt lat="48.66321" lon="2.52537">
        <ele>83</ele>
        <time>2014-12-11T14:18:26Z</time>
      </trkpt>
      <trkpt lat="48.66321" lon="2.5253">
        <ele>82</ele>
        <time>2014-12-11T14:18:29Z</time>
      </trkpt>
      <trkpt lat="48.66326" lon="2.52523">
        <ele>82</ele>
        <time>2014-12-11T14:18:33Z</time>
      </trkpt>
      <trkpt lat="48.66336" lon="2.52518">
        <ele>83</ele>
        <time>2014-12-11T14:18:39Z</time>
      </trkpt>
      <trkpt lat="48.66373" lon="2.52467">
        <ele>83</ele>
        <time>2014-12-11T14:19:10Z</time>
      </trkpt>
      <trkpt lat="48.66388" lon="2.52449">
        <ele>82</ele>
        <time>2014-12-11T14:19:26Z</time>
      </trkpt>
      <trkpt lat="48.6639" lon="2.52449">
        <ele>82</ele>
        <time>2014-12-11T14:20:20Z</time>
      </trkpt>
      <trkpt lat="48.6639" lon="2.52449">
        <ele>82</ele>
        <time>2014-12-11T14:20:32Z</time>
      </trkpt>
      <trkpt lat="48.66392" lon="2.52452">
        <ele>83</ele>
        <time>2014-12-11T14:20:54Z</time>
      </trkpt>
      <trkpt lat="48.66397" lon="2.52455">
        <ele>82</ele>
        <time>2014-12-11T14:21:04Z</time>
      </trkpt>
      <trkpt lat="48.664" lon="2.52449">
        <ele>82</ele>
        <time>2014-12-11T14:21:10Z</time>
      </trkpt>
      <trkpt lat="48.664" lon="2.52441">
        <ele>82</ele>
        <time>2014-12-11T14:21:18Z</time>
      </trkpt>
      <trkpt lat="48.66406" lon="2.52429">
        <ele>82</ele>
        <time>2014-12-11T14:21:36Z</time>
      </trkpt>
      <trkpt lat="48.66434" lon="2.52387">
        <ele>82</ele>
        <time>2014-12-11T14:22:08Z</time>
      </trkpt>
      <trkpt lat="48.66439" lon="2.52384">
        <ele>82</ele>
        <time>2014-12-11T14:22:12Z</time>
      </trkpt>
      <trkpt lat="48.66443" lon="2.52379">
        <ele>82</ele>
        <time>2014-12-11T14:22:17Z</time>
      </trkpt>
      <trkpt lat="48.66444" lon="2.52372">
        <ele>82</ele>
        <time>2014-12-11T14:22:21Z</time>
      </trkpt>
      <trkpt lat="48.6646" lon="2.5235">
        <ele>82</ele>
        <time>2014-12-11T14:22:38Z</time>
      </trkpt>
      <trkpt lat="48.66505" lon="2.52313">
        <ele>82</ele>
        <time>2014-12-11T14:23:08Z</time>
      </trkpt>
      <trkpt lat="48.6654" lon="2.52258">
        <ele>82</ele>
        <time>2014-12-11T14:23:41Z</time>
      </trkpt>
      <trkpt lat="48.66551" lon="2.52252">
        <ele>82</ele>
        <time>2014-12-11T14:23:46Z</time>
      </trkpt>
      <trkpt lat="48.6659" lon="2.52186">
        <ele>81</ele>
        <time>2014-12-11T14:24:18Z</time>
      </trkpt>
      <trkpt lat="48.66628" lon="2.5214">
        <ele>82</ele>
        <time>2014-12-11T14:24:49Z</time>
      </trkpt>
      <trkpt lat="48.66669" lon="2.52094">
        <ele>83</ele>
        <time>2014-12-11T14:25:21Z</time>
      </trkpt>
      <trkpt lat="48.66702" lon="2.52054">
        <ele>83</ele>
        <time>2014-12-11T14:25:45Z</time>
      </trkpt>
      <trkpt lat="48.66712" lon="2.5203">
        <ele>82</ele>
        <time>2014-12-11T14:25:58Z</time>
      </trkpt>
      <trkpt lat="48.66757" lon="2.51981">
        <ele>82</ele>
        <time>2014-12-11T14:26:32Z</time>
      </trkpt>
      <trkpt lat="48.66798" lon="2.51924">
        <ele>82</ele>
        <time>2014-12-11T14:27:05Z</time>
      </trkpt>
      <trkpt lat="48.66838" lon="2.51868">
        <ele>81</ele>
        <time>2014-12-11T14:27:37Z</time>
      </trkpt>
      <trkpt lat="48.66843" lon="2.51855">
        <ele>81</ele>
        <time>2014-12-11T14:27:45Z</time>
      </trkpt>
      <trkpt lat="48.66889" lon="2.51793">
        <ele>81</ele>
        <time>2014-12-11T14:28:21Z</time>
      </trkpt>
      <trkpt lat="48.66934" lon="2.51755">
        <ele>81</ele>
        <time>2014-12-11T14:28:52Z</time>
      </trkpt>
      <trkpt lat="48.66936" lon="2.51753">
        <ele>81</ele>
        <time>2014-12-11T14:28:53Z</time>
      </trkpt>
      <trkpt lat="48.66942" lon="2.51741">
        <ele>81</ele>
        <time>2014-12-11T14:28:59Z</time>
      </trkpt>
      <trkpt lat="48.6695" lon="2.5173">
        <ele>80</ele>
        <time>2014-12-11T14:29:06Z</time>
      </trkpt>
      <trkpt lat="48.66955" lon="2.51708">
        <ele>81</ele>
        <time>2014-12-11T14:29:17Z</time>
      </trkpt>
      <trkpt lat="48.66992" lon="2.51659">
        <ele>81</ele>
        <time>2014-12-11T14:29:47Z</time>
      </trkpt>
      <trkpt lat="48.67037" lon="2.51613">
        <ele>81</ele>
        <time>2014-12-11T14:30:19Z</time>
      </trkpt>
      <trkpt lat="48.67071" lon="2.51558">
        <ele>81</ele>
        <time>2014-12-11T14:30:51Z</time>
      </trkpt>
      <trkpt lat="48.67076" lon="2.51553">
        <ele>82</ele>
        <time>2014-12-11T14:30:54Z</time>
      </trkpt>
      <trkpt lat="48.67093" lon="2.51531">
        <ele>81</ele>
        <time>2014-12-11T14:31:07Z</time>
      </trkpt>
      <trkpt lat="48.67129" lon="2.51482">
        <ele>81</ele>
        <time>2014-12-11T14:31:38Z</time>
      </trkpt>
      <trkpt lat="48.67146" lon="2.51447">
        <ele>81</ele>
        <time>2014-12-11T14:31:55Z</time>
      </trkpt>
      <trkpt lat="48.67158" lon="2.51445">
        <ele>81</ele>
        <time>2014-12-11T14:32:01Z</time>
      </trkpt>
      <trkpt lat="48.67163" lon="2.51433">
        <ele>81</ele>
        <time>2014-12-11T14:32:07Z</time>
      </trkpt>
      <trkpt lat="48.67198" lon="2.51383">
        <ele>81</ele>
        <time>2014-12-11T14:32:37Z</time>
      </trkpt>
      <trkpt lat="48.67225" lon="2.51358">
        <ele>80</ele>
        <time>2014-12-11T14:32:58Z</time>
      </trkpt>
      <trkpt lat="48.67225" lon="2.5135">
        <ele>80</ele>
        <time>2014-12-11T14:33:00Z</time>
      </trkpt>
      <trkpt lat="48.67224" lon="2.51336">
        <ele>80</ele>
        <time>2014-12-11T14:33:04Z</time>
      </trkpt>
      <trkpt lat="48.67231" lon="2.51327">
        <ele>81</ele>
        <time>2014-12-11T14:33:10Z</time>
      </trkpt>
      <trkpt lat="48.67239" lon="2.51321">
        <ele>81</ele>
        <time>2014-12-11T14:33:16Z</time>
      </trkpt>
      <trkpt lat="48.67254" lon="2.51312">
        <ele>81</ele>
        <time>2014-12-11T14:33:26Z</time>
      </trkpt>
      <trkpt lat="48.67291" lon="2.51252">
        <ele>80</ele>
        <time>2014-12-11T14:33:57Z</time>
      </trkpt>
      <trkpt lat="48.67309" lon="2.51215">
        <ele>80</ele>
        <time>2014-12-11T14:34:15Z</time>
      </trkpt>
      <trkpt lat="48.67327" lon="2.51201">
        <ele>80</ele>
        <time>2014-12-11T14:34:28Z</time>
      </trkpt>
      <trkpt lat="48.67333" lon="2.51189">
        <ele>80</ele>
        <time>2014-12-11T14:34:35Z</time>
      </trkpt>
      <trkpt lat="48.67342" lon="2.51183">
        <ele>80</ele>
        <time>2014-12-11T14:34:42Z</time>
      </trkpt>
      <trkpt lat="48.67349" lon="2.51169">
        <ele>80</ele>
        <time>2014-12-11T14:34:48Z</time>
      </trkpt>
      <trkpt lat="48.67388" lon="2.51122">
        <ele>80</ele>
        <time>2014-12-11T14:35:20Z</time>
      </trkpt>
      <trkpt lat="48.67395" lon="2.51102">
        <ele>80</ele>
        <time>2014-12-11T14:35:29Z</time>
      </trkpt>
      <trkpt lat="48.67399" lon="2.51099">
        <ele>80</ele>
        <time>2014-12-11T14:35:32Z</time>
      </trkpt>
      <trkpt lat="48.67405" lon="2.51097">
        <ele>80</ele>
        <time>2014-12-11T14:35:37Z</time>
      </trkpt>
      <trkpt lat="48.67417" lon="2.5108">
        <ele>80</ele>
        <time>2014-12-11T14:35:49Z</time>
      </trkpt>
      <trkpt lat="48.67442" lon="2.51038">
        <ele>80</ele>
        <time>2014-12-11T14:36:10Z</time>
      </trkpt>
      <trkpt lat="48.67458" lon="2.51031">
        <ele>80</ele>
        <time>2014-12-11T14:36:21Z</time>
      </trkpt>
      <trkpt lat="48.67459" lon="2.51025">
        <ele>80</ele>
        <time>2014-12-11T14:36:24Z</time>
      </trkpt>
      <trkpt lat="48.67462" lon="2.5102">
        <ele>80</ele>
        <time>2014-12-11T14:36:27Z</time>
      </trkpt>
      <trkpt lat="48.67471" lon="2.51013">
        <ele>79</ele>
        <time>2014-12-11T14:36:34Z</time>
      </trkpt>
      <trkpt lat="48.67515" lon="2.50953">
        <ele>80</ele>
        <time>2014-12-11T14:37:11Z</time>
      </trkpt>
      <trkpt lat="48.67519" lon="2.5094">
        <ele>80</ele>
        <time>2014-12-11T14:37:17Z</time>
      </trkpt>
      <trkpt lat="48.67568" lon="2.50881">
        <ele>79</ele>
        <time>2014-12-11T14:37:54Z</time>
      </trkpt>
      <trkpt lat="48.676" lon="2.50829">
        <ele>80</ele>
        <time>2014-12-11T14:38:26Z</time>
      </trkpt>
      <trkpt lat="48.67605" lon="2.50817">
        <ele>80</ele>
        <time>2014-12-11T14:38:34Z</time>
      </trkpt>
      <trkpt lat="48.67645" lon="2.50758">
        <ele>79</ele>
        <time>2014-12-11T14:39:09Z</time>
      </trkpt>
      <trkpt lat="48.67686" lon="2.50714">
        <ele>79</ele>
        <time>2014-12-11T14:39:43Z</time>
      </trkpt>
      <trkpt lat="48.67695" lon="2.50718">
        <ele>79</ele>
        <time>2014-12-11T14:40:00Z</time>
      </trkpt>
      <trkpt lat="48.67713" lon="2.50753">
        <ele>79</ele>
        <time>2014-12-11T14:40:20Z</time>
      </trkpt>
      <trkpt lat="48.67737" lon="2.50817">
        <ele>80</ele>
        <time>2014-12-11T14:40:52Z</time>
      </trkpt>
      <trkpt lat="48.6774" lon="2.50832">
        <ele>80</ele>
        <time>2014-12-11T14:41:00Z</time>
      </trkpt>
      <trkpt lat="48.67752" lon="2.50859">
        <ele>79</ele>
        <time>2014-12-11T14:41:14Z</time>
      </trkpt>
      <trkpt lat="48.67765" lon="2.50899">
        <ele>80</ele>
        <time>2014-12-11T14:41:32Z</time>
      </trkpt>
      <trkpt lat="48.67774" lon="2.50917">
        <ele>80</ele>
        <time>2014-12-11T14:41:41Z</time>
      </trkpt>
      <trkpt lat="48.67789" lon="2.50977">
        <ele>80</ele>
        <time>2014-12-11T14:42:11Z</time>
      </trkpt>
      <trkpt lat="48.6781" lon="2.51052">
        <ele>79</ele>
        <time>2014-12-11T14:42:45Z</time>
      </trkpt>
      <trkpt lat="48.67835" lon="2.51117">
        <ele>80</ele>
        <time>2014-12-11T14:43:19Z</time>
      </trkpt>
      <trkpt lat="48.67853" lon="2.51177">
        <ele>80</ele>
        <time>2014-12-11T14:43:47Z</time>
      </trkpt>
      <trkpt lat="48.67852" lon="2.51193">
        <ele>80</ele>
        <time>2014-12-11T14:43:53Z</time>
      </trkpt>
      <trkpt lat="48.6786" lon="2.51221">
        <ele>79</ele>
        <time>2014-12-11T14:44:07Z</time>
      </trkpt>
      <trkpt lat="48.67867" lon="2.51232">
        <ele>79</ele>
        <time>2014-12-11T14:44:13Z</time>
      </trkpt>
      <trkpt lat="48.67872" lon="2.5123">
        <ele>79</ele>
        <time>2014-12-11T14:44:19Z</time>
      </trkpt>
      <trkpt lat="48.67894" lon="2.51206">
        <ele>79</ele>
        <time>2014-12-11T14:44:37Z</time>
      </trkpt>
      <trkpt lat="48.67897" lon="2.51194">
        <ele>79</ele>
        <time>2014-12-11T14:44:43Z</time>
      </trkpt>
      <trkpt lat="48.67907" lon="2.51178">
        <ele>79</ele>
        <time>2014-12-11T14:44:55Z</time>
      </trkpt>
      <trkpt lat="48.67917" lon="2.51161">
        <ele>80</ele>
        <time>2014-12-11T14:45:07Z</time>
      </trkpt>
      <trkpt lat="48.67926" lon="2.51154">
        <ele>79</ele>
        <time>2014-12-11T14:45:12Z</time>
      </trkpt>
      <trkpt lat="48.67933" lon="2.51143">
        <ele>79</ele>
        <time>2014-12-11T14:45:17Z</time>
      </trkpt>
      <trkpt lat="48.67937" lon="2.51137">
        <ele>79</ele>
        <time>2014-12-11T14:45:20Z</time>
      </trkpt>
      <trkpt lat="48.67961" lon="2.51107">
        <ele>79</ele>
        <time>2014-12-11T14:45:39Z</time>
      </trkpt>
      <trkpt lat="48.67962" lon="2.51098">
        <ele>79</ele>
        <time>2014-12-11T14:45:42Z</time>
      </trkpt>
      <trkpt lat="48.68003" lon="2.51048">
        <ele>80</ele>
        <time>2014-12-11T14:46:14Z</time>
      </trkpt>
      <trkpt lat="48.68039" lon="2.50996">
        <ele>80</ele>
        <time>2014-12-11T14:46:45Z</time>
      </trkpt>
      <trkpt lat="48.68073" lon="2.50944">
        <ele>79</ele>
        <time>2014-12-11T14:47:15Z</time>
      </trkpt>
      <trkpt lat="48.6812" lon="2.50893">
        <ele>79</ele>
        <time>2014-12-11T14:47:50Z</time>
      </trkpt>
      <trkpt lat="48.68133" lon="2.50882">
        <ele>79</ele>
        <time>2014-12-11T14:47:58Z</time>
      </trkpt>
      <trkpt lat="48.68143" lon="2.50847">
        <ele>79</ele>
        <time>2014-12-11T14:48:11Z</time>
      </trkpt>
      <trkpt lat="48.6819" lon="2.50805">
        <ele>78</ele>
        <time>2014-12-11T14:48:45Z</time>
      </trkpt>
      <trkpt lat="48.68198" lon="2.50814">
        <ele>79</ele>
        <time>2014-12-11T14:48:54Z</time>
      </trkpt>
      <trkpt lat="48.68242" lon="2.50871">
        <ele>79</ele>
        <time>2014-12-11T14:49:29Z</time>
      </trkpt>
      <trkpt lat="48.68277" lon="2.50943">
        <ele>79</ele>
        <time>2014-12-11T14:50:03Z</time>
      </trkpt>
      <trkpt lat="48.68306" lon="2.50999">
        <ele>79</ele>
        <time>2014-12-11T14:50:36Z</time>
      </trkpt>
      <trkpt lat="48.68346" lon="2.51065">
        <ele>79</ele>
        <time>2014-12-11T14:51:11Z</time>
      </trkpt>
      <trkpt lat="48.68382" lon="2.51127">
        <ele>78</ele>
        <time>2014-12-11T14:51:45Z</time>
      </trkpt>
      <trkpt lat="48.6839" lon="2.5115">
        <ele>78</ele>
        <time>2014-12-11T14:51:54Z</time>
      </trkpt>
      <trkpt lat="48.68434" lon="2.51208">
        <ele>79</ele>
        <time>2014-12-11T14:52:28Z</time>
      </trkpt>
      <trkpt lat="48.68466" lon="2.51267">
        <ele>79</ele>
        <time>2014-12-11T14:53:02Z</time>
      </trkpt>
      <trkpt lat="48.68495" lon="2.51323">
        <ele>78</ele>
        <time>2014-12-11T14:53:34Z</time>
      </trkpt>
      <trkpt lat="48.68502" lon="2.51331">
        <ele>78</ele>
        <time>2014-12-11T14:53:39Z</time>
      </trkpt>
      <trkpt lat="48.68511" lon="2.51333">
        <ele>78</ele>
        <time>2014-12-11T14:53:47Z</time>
      </trkpt>
      <trkpt lat="48.6852" lon="2.51329">
        <ele>78</ele>
        <time>2014-12-11T14:53:55Z</time>
      </trkpt>
      <trkpt lat="48.6853" lon="2.51335">
        <ele>78</ele>
        <time>2014-12-11T14:54:06Z</time>
      </trkpt>
      <trkpt lat="48.68539" lon="2.51333">
        <ele>78</ele>
        <time>2014-12-11T14:54:15Z</time>
      </trkpt>
      <trkpt lat="48.68542" lon="2.51327">
        <ele>78</ele>
        <time>2014-12-11T14:54:18Z</time>
      </trkpt>
      <trkpt lat="48.68549" lon="2.51306">
        <ele>79</ele>
        <time>2014-12-11T14:54:32Z</time>
      </trkpt>
    </trkseg>
  </trk>
</gpx>